createdAt,value
2022-11-10T00:00:08.362Z,12.60
2022-11-10T00:02:54.179Z,12.60
2022-11-10T00:05:39.642Z,12.50
2022-11-10T00:08:25.315Z,12.50
2022-11-10T00:11:10.836Z,12.50
2022-11-10T00:14:14.986Z,12.40
2022-11-10T00:17:00.853Z,12.40
2022-11-10T00:19:46.537Z,12.40
2022-11-10T00:22:33.550Z,12.30
2022-11-10T00:25:19.228Z,12.30
2022-11-10T00:28:04.700Z,12.30
2022-11-10T00:30:50.361Z,12.30
2022-11-10T00:33:37.564Z,12.30
2022-11-10T00:36:23.663Z,12.20
2022-11-10T00:39:09.674Z,12.20
2022-11-10T00:44:40.818Z,12.20
2022-11-10T00:47:26.543Z,12.10
2022-11-10T00:50:12.670Z,12.10
2022-11-10T00:52:58.341Z,12.10
2022-11-10T00:55:44.091Z,12.10
2022-11-10T00:58:29.673Z,12.20
2022-11-10T01:01:16.596Z,12.10
2022-11-10T01:04:02.308Z,12.10
2022-11-10T01:06:48.336Z,12.20
2022-11-10T01:09:33.764Z,12.20
2022-11-10T01:12:19.102Z,12.20
2022-11-10T01:15:05.697Z,12.20
2022-11-10T01:17:52.501Z,12.30
2022-11-10T01:20:37.686Z,12.30
2022-11-10T01:23:23.603Z,12.30
2022-11-10T01:26:09.882Z,12.30
2022-11-10T01:28:55.580Z,12.30
2022-11-10T01:31:41.149Z,12.40
2022-11-10T01:34:26.524Z,12.40
2022-11-10T01:37:12.607Z,12.40
2022-11-10T01:39:58.001Z,12.40
2022-11-10T01:42:49.836Z,12.40
2022-11-10T01:45:46.111Z,12.40
2022-11-10T01:48:44.132Z,12.40
2022-11-10T01:51:34.980Z,12.40
2022-11-10T01:54:38.155Z,12.40
2022-11-10T01:57:23.689Z,12.40
2022-11-10T02:00:10.384Z,12.40
2022-11-10T02:03:09.724Z,12.40
2022-11-10T02:05:56.048Z,12.40
2022-11-10T02:08:42.813Z,12.40
2022-11-10T02:11:29.424Z,12.40
2022-11-10T02:14:16.381Z,12.40
2022-11-10T02:17:01.665Z,12.40
2022-11-10T02:19:46.963Z,12.40
2022-11-10T02:22:33.254Z,12.50
2022-11-10T02:25:21.688Z,12.50
2022-11-10T02:28:07.191Z,12.50
2022-11-10T02:30:53.160Z,12.50
2022-11-10T02:33:38.994Z,12.50
2022-11-10T02:36:24.795Z,12.50
2022-11-10T02:39:10.714Z,12.60
2022-11-10T02:41:56.015Z,12.60
2022-11-10T02:44:42.406Z,12.60
2022-11-10T02:47:27.881Z,12.60
2022-11-10T02:50:13.490Z,12.60
2022-11-10T02:52:59.103Z,12.60
2022-11-10T02:55:44.702Z,12.60
2022-11-10T02:58:30.338Z,12.60
2022-11-10T03:01:15.920Z,12.70
2022-11-10T03:04:01.527Z,12.70
2022-11-10T03:06:47.123Z,12.70
2022-11-10T03:09:32.488Z,12.70
2022-11-10T03:12:18.754Z,12.70
2022-11-10T03:15:04.650Z,12.70
2022-11-10T03:17:51.186Z,12.70
2022-11-10T03:20:36.962Z,12.70
2022-11-10T03:23:22.769Z,12.70
2022-11-10T03:26:09.194Z,12.70
2022-11-10T03:28:54.376Z,12.60
2022-11-10T03:31:39.787Z,12.70
2022-11-10T03:34:30.696Z,12.60
2022-11-10T03:37:17.597Z,12.60
2022-11-10T03:40:03.148Z,12.60
2022-11-10T03:42:48.516Z,12.60
2022-11-10T03:45:33.904Z,12.50
2022-11-10T03:48:19.449Z,12.50
2022-11-10T03:51:05.251Z,12.50
2022-11-10T03:53:51.232Z,12.50
2022-11-10T03:56:36.535Z,12.50
2022-11-10T03:59:22.290Z,12.50
2022-11-10T04:02:07.832Z,12.40
2022-11-10T04:05:11.864Z,12.40
2022-11-10T04:08:19.523Z,12.40
2022-11-10T04:11:04.839Z,12.40
2022-11-10T04:14:08.535Z,12.40
2022-11-10T04:16:54.638Z,12.40
2022-11-10T04:19:40.111Z,12.30
2022-11-10T04:22:44.156Z,12.20
2022-11-10T04:25:29.581Z,12.20
2022-11-10T04:28:15.025Z,12.10
2022-11-10T04:31:00.917Z,12.10
2022-11-10T04:33:47.556Z,12.00
2022-11-10T04:36:34.969Z,11.90
2022-11-10T04:39:20.577Z,11.90
2022-11-10T04:42:06.216Z,11.80
2022-11-10T04:44:51.848Z,11.80
2022-11-10T04:47:37.484Z,11.70
2022-11-10T04:50:23.060Z,11.70
2022-11-10T04:53:08.743Z,11.60
2022-11-10T04:55:54.176Z,11.60
2022-11-10T04:58:39.748Z,11.60
2022-11-10T05:01:27.977Z,11.60
2022-11-10T05:04:13.594Z,11.50
2022-11-10T05:06:59.472Z,11.50
2022-11-10T05:09:45.216Z,11.40
2022-11-10T05:12:30.561Z,11.40
2022-11-10T05:15:16.164Z,11.30
2022-11-10T05:18:01.835Z,11.20
2022-11-10T05:20:47.525Z,11.20
2022-11-10T05:23:38.410Z,11.20
2022-11-10T05:26:23.782Z,11.10
2022-11-10T05:29:09.436Z,11.10
2022-11-10T05:31:54.991Z,11.10
2022-11-10T05:34:40.443Z,11.10
2022-11-10T05:40:12.121Z,11.00
2022-11-10T05:42:57.882Z,11.00
2022-11-10T05:45:43.711Z,11.00
2022-11-10T05:48:29.379Z,11.00
2022-11-10T05:51:14.647Z,11.00
2022-11-10T05:54:00.315Z,10.90
2022-11-10T05:56:46.100Z,10.90
2022-11-10T05:59:31.706Z,11.00
2022-11-10T06:02:17.500Z,11.00
2022-11-10T06:05:03.166Z,11.00
2022-11-10T06:07:48.552Z,11.00
2022-11-10T06:10:35.515Z,11.00
2022-11-10T06:13:21.183Z,11.00
2022-11-10T06:16:07.148Z,11.00
2022-11-10T06:18:52.460Z,11.00
2022-11-10T06:21:38.078Z,11.00
2022-11-10T06:24:23.599Z,11.00
2022-11-10T06:27:09.196Z,11.00
2022-11-10T06:29:54.866Z,11.00
2022-11-10T06:32:44.162Z,11.00
2022-11-10T06:35:30.342Z,11.10
2022-11-10T06:38:15.876Z,11.10
2022-11-10T06:41:00.987Z,11.10
2022-11-10T06:43:46.697Z,11.20
2022-11-10T06:46:32.048Z,11.20
2022-11-10T06:49:17.679Z,11.20
2022-11-10T06:52:02.969Z,11.30
2022-11-10T06:54:48.503Z,11.30
2022-11-10T06:57:40.427Z,11.30
2022-11-10T07:00:28.458Z,11.30
2022-11-10T07:03:15.776Z,11.40
2022-11-10T07:06:01.463Z,11.40
2022-11-10T07:08:47.135Z,11.40
2022-11-10T07:11:32.944Z,11.40
2022-11-10T07:14:18.431Z,11.40
2022-11-10T07:17:03.872Z,11.40
2022-11-10T07:19:49.467Z,11.50
2022-11-10T07:22:35.008Z,11.50
2022-11-10T07:25:20.416Z,11.40
2022-11-10T07:28:08.618Z,11.40
2022-11-10T07:30:54.594Z,11.40
2022-11-10T07:33:40.224Z,11.40
2022-11-10T07:36:29.032Z,11.50
2022-11-10T07:39:15.081Z,11.50
2022-11-10T07:42:00.219Z,11.50
2022-11-10T07:44:45.682Z,11.50
2022-11-10T07:47:31.363Z,11.60
2022-11-10T07:50:18.251Z,11.70
2022-11-10T07:53:05.007Z,11.70
2022-11-10T07:55:50.651Z,11.80
2022-11-10T07:58:36.095Z,11.80
2022-11-10T08:01:21.724Z,11.90
2022-11-10T08:04:07.247Z,11.90
2022-11-10T08:06:54.613Z,12.00
2022-11-10T08:09:40.433Z,12.00
2022-11-10T08:12:28.619Z,12.00
2022-11-10T08:15:15.777Z,12.00
2022-11-10T08:18:15.746Z,12.10
2022-11-10T08:21:02.155Z,12.10
2022-11-10T08:23:47.633Z,12.10
2022-11-10T08:26:33.079Z,12.10
2022-11-10T08:29:18.560Z,12.20
2022-11-10T08:32:04.140Z,12.20
2022-11-10T08:34:49.725Z,12.20
2022-11-10T08:37:35.084Z,12.20
2022-11-10T08:40:21.585Z,12.30
2022-11-10T08:43:07.862Z,12.30
2022-11-10T08:45:58.515Z,12.30
2022-11-10T08:48:43.989Z,12.30
2022-11-10T08:51:29.054Z,12.40
2022-11-10T08:54:14.846Z,12.40
2022-11-10T08:57:00.025Z,12.40
2022-11-10T08:59:45.759Z,12.50
2022-11-10T09:05:17.591Z,12.50
2022-11-10T09:08:04.498Z,12.50
2022-11-10T09:10:51.219Z,12.50
2022-11-10T09:13:37.024Z,12.60
2022-11-10T09:16:22.841Z,12.60
2022-11-10T09:19:08.237Z,12.60
2022-11-10T09:21:53.757Z,12.70
2022-11-10T09:24:39.511Z,12.60
2022-11-10T09:27:24.954Z,12.70
2022-11-10T09:30:16.370Z,12.70
2022-11-10T09:33:03.412Z,12.70
2022-11-10T09:35:49.034Z,12.80
2022-11-10T09:38:35.267Z,12.80
2022-11-10T09:41:20.664Z,12.80
2022-11-10T09:44:26.607Z,12.80
2022-11-10T09:47:42.237Z,12.90
2022-11-10T09:51:13.627Z,13.00
2022-11-10T09:54:32.918Z,13.20
2022-11-10T09:57:24.102Z,13.20
2022-11-10T10:00:14.905Z,13.10
2022-11-10T10:03:04.232Z,13.20
2022-11-10T10:06:13.015Z,13.20
2022-11-10T10:09:15.565Z,13.20
2022-11-10T10:12:33.947Z,13.20
2022-11-10T10:15:28.748Z,13.20
2022-11-10T10:18:24.589Z,13.30
2022-11-10T10:21:28.727Z,13.30
2022-11-10T10:24:21.823Z,13.40
2022-11-10T10:27:15.636Z,13.50
2022-11-10T10:30:02.000Z,13.60
2022-11-10T10:32:47.249Z,13.60
2022-11-10T10:35:37.716Z,13.70
2022-11-10T10:38:32.788Z,13.80
2022-11-10T10:41:30.550Z,13.80
2022-11-10T10:44:18.107Z,13.90
2022-11-10T10:47:04.547Z,13.80
2022-11-10T10:49:49.968Z,13.90
2022-11-10T10:52:35.891Z,13.90
2022-11-10T10:55:29.417Z,13.90
2022-11-10T10:58:26.355Z,13.90
2022-11-10T11:01:18.314Z,13.80
2022-11-10T11:04:28.750Z,13.80
2022-11-10T11:07:23.819Z,13.80
2022-11-10T11:10:25.157Z,13.90
2022-11-10T11:13:22.047Z,13.90
2022-11-10T11:16:12.281Z,13.90
2022-11-10T11:18:57.745Z,14.00
2022-11-10T11:22:07.648Z,14.10
2022-11-10T11:25:21.497Z,14.20
2022-11-10T11:28:21.780Z,14.20
2022-11-10T11:31:15.075Z,14.20
2022-11-10T11:34:12.738Z,14.30
2022-11-10T11:37:11.240Z,14.30
2022-11-10T11:40:18.581Z,14.30
2022-11-10T11:43:37.047Z,14.20
2022-11-10T11:46:58.047Z,14.20
2022-11-10T11:50:09.186Z,14.20
2022-11-10T11:53:29.088Z,14.20
2022-11-10T11:56:21.527Z,14.10
2022-11-10T11:59:25.996Z,14.10
2022-11-10T12:02:24.138Z,14.10
2022-11-10T12:05:43.058Z,14.10
2022-11-10T12:08:49.767Z,14.00
2022-11-10T12:11:54.138Z,14.00
2022-11-10T12:15:13.287Z,14.00
2022-11-10T12:18:29.711Z,14.00
2022-11-10T12:21:26.061Z,14.00
2022-11-10T12:24:30.438Z,13.90
2022-11-10T12:27:19.136Z,13.90
2022-11-10T12:30:13.733Z,13.90
2022-11-10T12:33:04.096Z,13.90
2022-11-10T12:35:51.899Z,13.90
2022-11-10T12:39:00.758Z,13.90
2022-11-10T12:41:51.470Z,13.90
2022-11-10T12:44:39.506Z,14.00
2022-11-10T12:47:30.407Z,11.80
2022-11-10T12:50:35.521Z,14.00
2022-11-10T12:53:25.489Z,13.90
2022-11-10T12:56:47.768Z,13.90
2022-11-10T12:59:36.351Z,14.00
2022-11-10T13:02:42.239Z,14.00
2022-11-10T13:05:36.832Z,13.90
2022-11-10T13:08:40.913Z,14.00
2022-11-10T13:11:36.441Z,14.00
2022-11-10T13:14:40.266Z,14.00
2022-11-10T13:17:28.680Z,14.00
2022-11-10T13:20:39.358Z,14.00
2022-11-10T13:23:31.292Z,14.00
2022-11-10T13:26:44.966Z,14.00
2022-11-10T13:29:42.607Z,14.00
2022-11-10T13:32:32.317Z,14.00
2022-11-10T13:35:30.044Z,14.00
2022-11-10T13:38:44.459Z,13.90
2022-11-10T13:41:33.341Z,13.90
2022-11-10T13:44:28.643Z,13.90
2022-11-10T13:47:35.325Z,13.90
2022-11-10T13:50:51.860Z,13.90
2022-11-10T13:53:46.732Z,14.00
2022-11-10T13:56:42.756Z,14.00
2022-11-10T13:59:31.385Z,14.00
2022-11-10T14:02:37.169Z,14.00
2022-11-10T14:05:29.408Z,14.00
2022-11-10T14:08:20.513Z,14.00
2022-11-10T14:11:14.085Z,14.00
2022-11-10T14:14:21.672Z,14.00
2022-11-10T14:17:18.860Z,14.00
2022-11-10T14:20:05.065Z,13.90
2022-11-10T14:22:53.018Z,13.90
2022-11-10T14:25:43.935Z,13.90
2022-11-10T14:28:32.383Z,13.90
2022-11-10T14:31:24.406Z,13.90
2022-11-10T14:34:15.825Z,13.90
2022-11-10T14:37:03.100Z,13.80
2022-11-10T14:39:50.149Z,13.80
2022-11-10T14:42:35.824Z,13.80
2022-11-10T14:45:22.690Z,13.80
2022-11-10T14:48:19.052Z,13.80
2022-11-10T14:51:15.239Z,13.80
2022-11-10T14:54:02.689Z,13.70
2022-11-10T14:56:48.898Z,13.70
2022-11-10T15:02:20.767Z,13.70
2022-11-10T15:05:09.365Z,13.70
2022-11-10T15:07:56.643Z,13.70
2022-11-10T15:10:46.563Z,13.70
2022-11-10T15:13:33.264Z,13.70
2022-11-10T15:16:27.483Z,13.60
2022-11-10T15:19:31.713Z,13.60
2022-11-10T15:22:32.733Z,13.60
2022-11-10T15:25:22.064Z,13.50
2022-11-10T15:28:13.619Z,13.50
2022-11-10T15:31:02.454Z,13.50
2022-11-10T15:33:50.606Z,13.50
2022-11-10T15:36:41.067Z,13.40
2022-11-10T15:39:28.104Z,13.40
2022-11-10T15:42:21.449Z,13.30
2022-11-10T15:45:07.348Z,13.30
2022-11-10T15:47:53.213Z,13.30
2022-11-10T15:50:39.196Z,13.30
2022-11-10T15:53:31.621Z,13.20
2022-11-10T15:56:20.599Z,13.20
2022-11-10T15:59:05.876Z,13.10
2022-11-10T16:01:51.734Z,13.10
2022-11-10T16:07:23.664Z,13.10
2022-11-10T16:10:09.829Z,13.10
2022-11-10T16:12:55.628Z,13.10
2022-11-10T16:15:42.402Z,13.00
2022-11-10T16:18:30.802Z,12.90
2022-11-10T16:21:26.312Z,12.90
2022-11-10T16:24:11.820Z,12.90
2022-11-10T16:26:58.199Z,12.80
2022-11-10T16:29:43.754Z,12.80
2022-11-10T16:32:29.192Z,12.80
2022-11-10T16:35:15.566Z,12.80
2022-11-10T16:38:01.021Z,12.80
2022-11-10T16:40:51.050Z,12.80
2022-11-10T16:43:36.698Z,12.70
2022-11-10T16:46:25.814Z,12.70
2022-11-10T16:49:35.300Z,12.60
2022-11-10T16:52:22.587Z,12.60
2022-11-10T16:55:13.898Z,12.60
2022-11-10T16:57:59.382Z,12.50
2022-11-10T17:00:46.690Z,12.50
2022-11-10T17:03:38.157Z,12.50
2022-11-10T17:06:26.585Z,12.50
2022-11-10T17:09:21.567Z,12.50
2022-11-10T17:12:10.142Z,12.50
2022-11-10T17:14:55.629Z,12.50
2022-11-10T17:17:45.689Z,12.50
2022-11-10T17:20:37.865Z,12.50
2022-11-10T17:23:25.484Z,12.60
2022-11-10T17:26:14.298Z,12.50
2022-11-10T17:29:01.157Z,12.60
2022-11-10T17:31:46.446Z,12.50
2022-11-10T17:34:31.801Z,12.50
2022-11-10T17:37:18.869Z,12.50
2022-11-10T17:40:19.545Z,12.50
2022-11-10T17:43:05.714Z,12.40
2022-11-10T17:45:51.672Z,12.40
2022-11-10T17:48:37.315Z,12.30
2022-11-10T17:51:23.660Z,12.30
2022-11-10T17:54:16.019Z,12.20
2022-11-10T17:57:04.616Z,12.20
2022-11-10T17:59:50.399Z,12.20
2022-11-10T18:02:35.683Z,12.20
2022-11-10T18:05:21.421Z,12.10
2022-11-10T18:08:06.789Z,12.10
2022-11-10T18:13:40.044Z,12.10
2022-11-10T18:16:25.455Z,12.10
2022-11-10T18:19:11.580Z,12.20
2022-11-10T18:21:56.976Z,12.20
2022-11-10T18:24:42.814Z,12.10
2022-11-10T18:27:28.488Z,12.10
2022-11-10T18:30:14.818Z,12.10
2022-11-10T18:33:04.654Z,12.10
2022-11-10T18:35:49.882Z,12.10
2022-11-10T18:38:35.981Z,12.10
2022-11-10T18:41:39.918Z,12.10
2022-11-10T18:44:25.388Z,12.00
2022-11-10T18:47:13.101Z,12.00
2022-11-10T18:49:58.656Z,12.00
2022-11-10T18:52:44.816Z,12.00
2022-11-10T18:55:30.451Z,11.90
2022-11-10T18:58:15.950Z,11.90
2022-11-10T19:01:09.024Z,11.90
2022-11-10T19:03:54.733Z,11.90
2022-11-10T19:06:41.020Z,11.90
2022-11-10T19:09:26.892Z,11.90
2022-11-10T19:12:13.329Z,11.90
2022-11-10T19:14:58.816Z,11.90
2022-11-10T19:17:44.441Z,11.90
2022-11-10T19:20:30.142Z,11.90
2022-11-10T19:23:15.672Z,11.80
2022-11-10T19:26:22.109Z,11.80
2022-11-10T19:29:08.475Z,11.90
2022-11-10T19:31:54.334Z,11.90
2022-11-10T19:34:39.868Z,10.80
2022-11-10T19:37:26.869Z,11.90
2022-11-10T19:40:14.487Z,11.90
2022-11-10T19:43:00.199Z,12.00
2022-11-10T19:45:45.800Z,12.00
2022-11-10T19:48:32.344Z,12.00
2022-11-10T19:51:19.113Z,12.00
2022-11-10T19:54:05.943Z,12.00
2022-11-10T19:56:51.851Z,12.00
2022-11-10T19:59:37.332Z,12.00
2022-11-10T20:02:23.275Z,12.00
2022-11-10T20:05:16.301Z,12.00
2022-11-10T20:08:13.105Z,12.00
2022-11-10T20:11:10.441Z,12.00
2022-11-10T20:14:01.891Z,12.00
2022-11-10T20:16:47.595Z,12.00
2022-11-10T20:19:40.841Z,12.00
2022-11-10T20:22:27.114Z,12.00
2022-11-10T20:25:13.032Z,12.00
2022-11-10T20:28:01.396Z,12.10
2022-11-10T20:30:46.835Z,12.00
2022-11-10T20:33:32.563Z,12.00
2022-11-10T20:36:21.208Z,12.00
2022-11-10T20:39:07.393Z,12.00
2022-11-10T20:41:52.723Z,12.00
2022-11-10T20:44:38.787Z,12.00
2022-11-10T20:47:25.161Z,11.90
2022-11-10T20:50:15.456Z,11.90
2022-11-10T20:53:01.961Z,11.90
2022-11-10T20:55:54.638Z,11.90
2022-11-10T20:58:41.122Z,11.90
2022-11-10T21:01:27.083Z,11.90
2022-11-10T21:04:13.209Z,11.90
2022-11-10T21:06:59.075Z,11.80
2022-11-10T21:09:45.055Z,11.80
2022-11-10T21:12:53.902Z,11.80
2022-11-10T21:15:39.910Z,11.80
2022-11-10T21:18:31.310Z,11.80
2022-11-10T21:21:22.883Z,11.80
2022-11-10T21:24:09.453Z,11.80
2022-11-10T21:26:56.112Z,11.80
2022-11-10T21:29:42.403Z,11.80
2022-11-10T21:32:28.308Z,11.80
2022-11-10T21:35:13.818Z,11.80
2022-11-10T21:37:59.563Z,11.80
2022-11-10T21:40:45.106Z,11.80
2022-11-10T21:43:30.994Z,11.80
2022-11-10T21:46:17.398Z,11.80
2022-11-10T21:49:07.556Z,11.80
2022-11-10T21:51:53.459Z,11.70
2022-11-10T21:54:39.108Z,11.70
2022-11-10T21:57:24.962Z,11.70
2022-11-10T22:00:12.145Z,11.70
2022-11-10T22:02:59.414Z,11.70
2022-11-10T22:05:45.158Z,11.70
2022-11-10T22:08:30.968Z,11.70
2022-11-10T22:11:37.922Z,11.70
2022-11-10T22:14:41.994Z,11.70
2022-11-10T22:20:32.334Z,11.60
2022-11-10T22:23:17.706Z,11.60
2022-11-10T22:26:03.207Z,11.60
2022-11-10T22:28:49.017Z,11.60
2022-11-10T22:34:21.075Z,11.50
2022-11-10T22:37:06.784Z,11.50
2022-11-10T22:40:10.677Z,11.60
2022-11-10T22:43:14.441Z,11.50
2022-11-10T22:45:59.781Z,11.60
2022-11-10T22:48:45.282Z,11.50
2022-11-10T22:51:31.952Z,11.50
2022-11-10T22:54:23.149Z,11.90
2022-11-10T22:57:08.689Z,11.50
2022-11-10T22:59:54.061Z,11.50
2022-11-10T23:02:39.535Z,11.50
2022-11-10T23:05:25.332Z,11.50
2022-11-10T23:11:05.598Z,11.40
2022-11-10T23:13:51.330Z,11.50
2022-11-10T23:16:36.746Z,11.50
2022-11-10T23:19:22.404Z,11.40
2022-11-10T23:22:08.063Z,11.40
2022-11-10T23:24:56.934Z,11.40
2022-11-10T23:27:42.934Z,11.40
2022-11-10T23:30:28.524Z,11.40
2022-11-10T23:33:13.957Z,11.30
2022-11-10T23:35:59.697Z,11.30
2022-11-10T23:38:45.773Z,11.30
2022-11-10T23:41:31.494Z,11.20
2022-11-10T23:44:16.807Z,11.20
2022-11-10T23:49:48.349Z,11.20
2022-11-10T23:52:34.243Z,11.10
2022-11-10T23:55:19.615Z,11.10
2022-11-10T23:58:05.804Z,11.00
